createdAt,value
2022-10-17T00:00:55.464Z,515.57
2022-10-17T00:03:23.471Z,466.37
2022-10-17T00:05:51.539Z,446.47
2022-10-17T00:08:19.935Z,527.60
2022-10-17T00:10:57.493Z,783.93
2022-10-17T00:13:25.861Z,511.93
2022-10-17T00:15:55.326Z,645.30
2022-10-17T00:18:23.724Z,311.77
2022-10-17T00:20:51.863Z,549.93
2022-10-17T00:23:19.937Z,877.87
2022-10-17T00:25:48.059Z,324.87
2022-10-17T00:28:17.173Z,657.70
2022-10-17T00:30:45.208Z,725.93
2022-10-17T00:33:14.573Z,720.20
2022-10-17T00:35:42.586Z,273.77
2022-10-17T00:38:10.567Z,695.13
2022-10-17T00:40:38.599Z,388.47
2022-10-17T00:43:07.646Z,447.30
2022-10-17T00:45:35.684Z,407.77
2022-10-17T00:48:08.487Z,595.50
2022-10-17T00:50:40.850Z,223.00
2022-10-17T00:53:10.573Z,449.43
2022-10-17T00:55:46.032Z,406.83
2022-10-17T00:58:14.086Z,481.57
2022-10-17T01:00:43.158Z,565.13
2022-10-17T01:03:11.203Z,433.27
2022-10-17T01:05:42.375Z,806.30
2022-10-17T01:08:11.183Z,316.70
2022-10-17T01:10:50.296Z,504.23
2022-10-17T01:13:25.478Z,793.67
2022-10-17T01:16:00.975Z,719.03
2022-10-17T01:18:38.639Z,647.53
2022-10-17T01:21:39.467Z,498.70
2022-10-17T01:24:44.196Z,877.67
2022-10-17T01:27:46.008Z,793.93
2022-10-17T01:30:52.793Z,468.03
2022-10-17T01:33:33.475Z,245.33
2022-10-17T01:36:07.876Z,581.17
2022-10-17T01:38:40.359Z,448.40
2022-10-17T01:41:14.821Z,1006.30
2022-10-17T01:43:49.782Z,685.37
2022-10-17T01:46:23.244Z,386.00
2022-10-17T01:48:54.779Z,485.47
2022-10-17T01:51:27.726Z,660.73
2022-10-17T01:54:02.732Z,759.43
2022-10-17T01:56:32.682Z,302.57
2022-10-17T01:59:05.582Z,385.10
2022-10-17T02:01:35.300Z,677.43
2022-10-17T02:04:06.583Z,493.70
2022-10-17T02:06:36.903Z,452.73
2022-10-17T02:09:18.438Z,672.97
2022-10-17T02:11:58.243Z,648.27
2022-10-17T02:14:39.017Z,712.37
2022-10-17T02:17:16.607Z,449.07
2022-10-17T02:19:56.565Z,247.70
2022-10-17T02:22:33.823Z,298.03
2022-10-17T02:25:10.765Z,225.37
2022-10-17T02:27:46.186Z,298.43
2022-10-17T02:30:21.373Z,724.43
2022-10-17T02:32:54.215Z,508.03
2022-10-17T02:35:27.066Z,183.57
2022-10-17T02:37:56.321Z,69.03
2022-10-17T02:40:26.567Z,554.10
2022-10-17T02:42:56.766Z,370.90
2022-10-17T02:45:27.498Z,135.77
2022-10-17T02:48:00.637Z,463.47
2022-10-17T02:50:40.156Z,135.13
2022-10-17T02:53:13.571Z,163.07
2022-10-17T02:55:48.967Z,486.03
2022-10-17T02:58:21.651Z,330.20
2022-10-17T03:00:50.611Z,554.33
2022-10-17T03:03:24.074Z,172.23
2022-10-17T03:05:54.294Z,208.87
2022-10-17T03:08:22.814Z,568.83
2022-10-17T03:10:51.108Z,483.43
2022-10-17T03:13:19.358Z,351.53
2022-10-17T03:15:47.501Z,561.50
2022-10-17T03:18:15.766Z,484.00
2022-10-17T03:20:43.780Z,403.70
2022-10-17T03:23:13.156Z,729.43
2022-10-17T03:25:41.542Z,503.80
2022-10-17T03:28:10.522Z,354.50
2022-10-17T03:30:39.738Z,154.33
2022-10-17T03:33:07.710Z,349.17
2022-10-17T03:35:35.752Z,178.67
2022-10-17T03:38:03.732Z,389.70
2022-10-17T03:40:33.109Z,444.63
2022-10-17T03:43:01.093Z,144.57
2022-10-17T03:45:29.366Z,168.53
2022-10-17T03:47:57.339Z,383.07
2022-10-17T03:50:25.356Z,438.30
2022-10-17T03:52:53.368Z,787.20
2022-10-17T03:55:21.386Z,696.03
2022-10-17T03:57:50.738Z,455.33
2022-10-17T04:00:18.762Z,585.70
2022-10-17T04:02:46.725Z,563.73
2022-10-17T04:05:14.925Z,607.97
2022-10-17T04:07:42.928Z,410.17
2022-10-17T04:10:11.383Z,480.60
2022-10-17T04:12:39.370Z,372.27
2022-10-17T04:15:10.360Z,287.70
2022-10-17T04:17:38.469Z,395.90
2022-10-17T04:20:07.411Z,400.00
2022-10-17T04:22:35.556Z,669.93
2022-10-17T04:25:03.733Z,197.33
2022-10-17T04:27:31.742Z,52.77
2022-10-17T04:29:59.787Z,333.63
2022-10-17T04:32:29.344Z,388.83
2022-10-17T04:34:57.584Z,349.60
2022-10-17T04:37:25.667Z,272.53
2022-10-17T04:39:53.671Z,441.77
2022-10-17T04:42:21.801Z,489.33
2022-10-17T04:44:49.880Z,455.47
2022-10-17T04:47:17.954Z,283.70
2022-10-17T04:49:47.531Z,418.20
2022-10-17T04:52:16.146Z,857.67
2022-10-17T04:54:44.257Z,309.53
2022-10-17T04:57:12.415Z,585.47
2022-10-17T04:59:40.480Z,565.43
2022-10-17T05:02:08.884Z,717.83
2022-10-17T05:04:36.940Z,481.13
2022-10-17T05:07:06.347Z,465.30
2022-10-17T05:09:34.370Z,251.63
2022-10-17T05:12:04.336Z,654.07
2022-10-17T05:14:34.678Z,592.63
2022-10-17T05:17:02.683Z,589.63
2022-10-17T05:19:30.703Z,343.80
2022-10-17T05:21:58.727Z,431.13
2022-10-17T05:24:28.178Z,586.47
2022-10-17T05:26:56.768Z,343.80
2022-10-17T05:29:24.853Z,910.37
2022-10-17T05:31:53.006Z,231.97
2022-10-17T05:34:21.056Z,804.13
2022-10-17T05:36:49.143Z,189.03
2022-10-17T05:39:19.631Z,656.80
2022-10-17T05:41:49.128Z,826.70
2022-10-17T05:44:17.886Z,444.40
2022-10-17T05:46:45.905Z,237.60
2022-10-17T05:49:19.653Z,250.80
2022-10-17T05:51:59.789Z,791.47
2022-10-17T05:54:28.147Z,455.20
2022-10-17T05:56:57.871Z,621.20
2022-10-17T05:59:26.679Z,574.70
2022-10-17T06:01:55.385Z,163.20
2022-10-17T06:04:23.493Z,220.13
2022-10-17T06:06:51.559Z,581.13
2022-10-17T06:09:19.567Z,662.33
2022-10-17T06:11:47.591Z,366.83
2022-10-17T06:14:16.979Z,394.00
2022-10-17T06:16:45.055Z,167.70
2022-10-17T06:19:13.056Z,187.97
2022-10-17T06:21:41.142Z,613.80
2022-10-17T06:24:09.152Z,426.83
2022-10-17T06:26:37.177Z,646.37
2022-10-17T06:29:05.327Z,481.70
2022-10-17T06:31:34.776Z,196.73
2022-10-17T06:34:02.752Z,358.60
2022-10-17T06:36:30.749Z,639.87
2022-10-17T06:38:58.748Z,685.30
2022-10-17T06:41:26.787Z,735.37
2022-10-17T06:43:54.844Z,472.60
2022-10-17T06:46:24.672Z,767.13
2022-10-17T06:48:54.152Z,222.53
2022-10-17T06:51:22.237Z,1305.60
2022-10-17T06:53:50.295Z,665.93
2022-10-17T06:56:19.398Z,1055.40
2022-10-17T06:58:49.446Z,1597.93
2022-10-17T07:01:17.526Z,1572.20
2022-10-17T07:03:48.366Z,1363.57
2022-10-17T07:06:18.083Z,1574.40
2022-10-17T07:08:47.004Z,1426.67
2022-10-17T07:11:17.041Z,1174.30
2022-10-17T07:13:45.671Z,1152.45
2022-10-17T07:16:14.735Z,1216.50
2022-10-17T07:18:43.872Z,1239.13
2022-10-17T07:21:11.975Z,1457.00
2022-10-17T07:23:41.608Z,1304.55
2022-10-17T07:26:11.941Z,1426.68
2022-10-17T07:28:41.391Z,1439.75
2022-10-17T07:31:11.383Z,1411.00
2022-10-17T07:33:39.702Z,1520.28
2022-10-17T07:36:08.442Z,1381.13
2022-10-17T07:38:38.005Z,1350.95
2022-10-17T07:41:10.241Z,1285.97
2022-10-17T07:43:38.865Z,1079.32
2022-10-17T07:46:08.383Z,1174.22
2022-10-17T07:48:36.627Z,1083.43
2022-10-17T07:51:06.311Z,1404.15
2022-10-17T07:53:36.477Z,1397.63
2022-10-17T07:56:08.305Z,1463.68
2022-10-17T07:58:37.059Z,1276.75
2022-10-17T08:01:08.398Z,1163.40
2022-10-17T08:03:38.943Z,948.75
2022-10-17T08:06:07.211Z,1085.97
2022-10-17T08:08:35.472Z,1655.65
2022-10-17T08:11:04.992Z,1660.75
2022-10-17T08:13:35.143Z,1200.03
2022-10-17T08:16:04.233Z,1321.80
2022-10-17T08:18:32.674Z,1540.68
2022-10-17T08:21:01.337Z,1322.38
2022-10-17T08:23:29.508Z,1390.35
2022-10-17T08:26:00.824Z,1633.40
2022-10-17T08:28:29.082Z,1486.25
2022-10-17T08:31:05.271Z,1328.30
2022-10-17T08:33:33.543Z,1411.95
2022-10-17T08:36:02.078Z,1114.72
2022-10-17T08:38:34.638Z,1080.95
2022-10-17T08:41:05.600Z,1421.50
2022-10-17T08:43:44.919Z,1293.22
2022-10-17T08:48:46.701Z,1270.80
2022-10-17T08:51:18.018Z,1344.32
2022-10-17T08:53:51.980Z,1201.00
2022-10-17T08:56:25.180Z,1533.38
2022-10-17T08:59:13.810Z,1089.63
2022-10-17T09:01:51.191Z,1441.40
2022-10-17T09:04:49.728Z,1519.38
2022-10-17T09:07:23.424Z,1346.80
2022-10-17T09:10:00.259Z,1367.38
2022-10-17T09:12:36.903Z,1251.22
2022-10-17T09:15:24.916Z,1304.90
2022-10-17T09:17:59.347Z,1426.40
2022-10-17T09:20:29.936Z,1159.03
2022-10-17T09:23:00.808Z,1384.32
2022-10-17T09:25:29.390Z,1298.80
2022-10-17T09:28:05.710Z,1250.85
2022-10-17T09:30:46.243Z,1314.97
2022-10-17T09:33:28.521Z,1125.85
2022-10-17T09:36:11.061Z,1187.25
2022-10-17T09:38:42.500Z,1354.20
2022-10-17T09:41:43.110Z,1382.20
2022-10-17T09:44:18.873Z,1244.07
2022-10-17T09:47:10.529Z,1227.57
2022-10-17T09:49:41.583Z,1260.38
2022-10-17T09:52:14.954Z,1446.63
2022-10-17T09:54:46.079Z,1120.88
2022-10-17T09:57:16.123Z,1528.88
2022-10-17T09:59:46.811Z,1615.03
2022-10-17T10:02:21.613Z,1408.00
2022-10-17T10:05:06.444Z,1298.32
2022-10-17T10:07:37.522Z,1283.22
2022-10-17T10:10:08.166Z,1497.63
2022-10-17T10:12:38.741Z,1297.50
2022-10-17T10:15:33.446Z,1475.13
2022-10-17T10:18:01.743Z,1572.60
2022-10-17T10:20:34.082Z,1744.78
2022-10-17T10:23:14.539Z,1999.90
2022-10-17T10:25:55.645Z,1999.90
2022-10-17T10:28:28.069Z,1469.50
2022-10-17T10:30:57.771Z,1501.47
2022-10-17T10:33:29.387Z,1370.70
2022-10-17T10:36:01.818Z,1951.30
2022-10-17T10:38:31.339Z,1395.35
2022-10-17T10:41:04.590Z,1534.88
2022-10-17T10:43:36.899Z,1771.20
2022-10-17T10:46:07.462Z,1768.72
2022-10-17T10:48:37.062Z,1708.93
2022-10-17T10:51:12.936Z,1275.97
2022-10-17T10:53:48.188Z,1873.97
2022-10-17T10:56:20.621Z,1433.72
2022-10-17T10:58:55.012Z,1414.05
2022-10-17T11:01:31.181Z,1407.57
2022-10-17T11:04:08.942Z,1294.60
2022-10-17T11:06:42.183Z,1378.47
2022-10-17T11:09:30.069Z,1339.97
2022-10-17T11:12:07.210Z,1472.95
2022-10-17T11:14:44.528Z,1999.90
2022-10-17T11:17:21.192Z,1723.57
2022-10-17T11:19:57.366Z,1314.55
2022-10-17T11:22:30.934Z,1547.80
2022-10-17T11:25:02.004Z,1367.35
2022-10-17T11:27:31.839Z,1465.40
2022-10-17T11:30:00.179Z,1759.43
2022-10-17T11:32:32.857Z,1353.80
2022-10-17T11:35:06.655Z,1999.90
2022-10-17T11:37:40.753Z,1434.63
2022-10-17T11:40:20.471Z,1319.85
2022-10-17T11:42:56.087Z,1367.15
2022-10-17T11:45:27.478Z,1351.65
2022-10-17T11:47:59.870Z,1684.00
2022-10-17T11:53:22.748Z,1311.03
2022-10-17T11:55:53.618Z,1516.25
2022-10-17T11:58:34.044Z,1265.18
2022-10-17T12:01:13.555Z,1596.20
2022-10-17T12:03:53.117Z,1830.72
2022-10-17T12:06:33.363Z,1999.90
2022-10-17T12:09:12.994Z,1367.38
2022-10-17T12:11:53.952Z,1910.95
2022-10-17T12:14:42.992Z,1487.15
2022-10-17T12:17:29.354Z,1479.72
2022-10-17T12:20:27.286Z,1736.25
2022-10-17T12:22:57.227Z,1436.55
2022-10-17T12:25:31.479Z,1452.10
2022-10-17T12:28:14.333Z,1739.55
2022-10-17T12:30:57.573Z,1999.90
2022-10-17T12:33:33.988Z,1400.57
2022-10-17T12:36:50.385Z,1643.75
2022-10-17T12:39:52.435Z,1463.88
2022-10-17T12:42:51.257Z,1276.65
2022-10-17T12:45:51.432Z,1247.28
2022-10-17T12:49:00.357Z,1137.60
2022-10-17T12:51:37.898Z,1574.03
2022-10-17T12:54:12.525Z,1624.50
2022-10-17T12:56:42.524Z,1344.95
2022-10-17T12:59:18.821Z,1126.03
2022-10-17T13:01:49.476Z,1239.05
2022-10-17T13:04:18.846Z,1355.00
2022-10-17T13:06:49.236Z,1345.45
2022-10-17T13:09:26.864Z,1208.82
2022-10-17T13:11:57.447Z,1355.00
2022-10-17T13:14:28.031Z,1453.55
2022-10-17T13:16:58.417Z,1387.30
2022-10-17T13:19:28.301Z,1388.38
2022-10-17T13:21:59.821Z,1541.53
2022-10-17T13:24:33.856Z,1179.65
2022-10-17T13:27:03.128Z,1319.10
2022-10-17T13:29:33.118Z,1658.53
2022-10-17T13:32:04.106Z,1312.97
2022-10-17T13:34:33.646Z,1388.85
2022-10-17T13:37:05.396Z,1388.18
2022-10-17T13:39:54.427Z,1723.78
2022-10-17T13:42:26.986Z,1736.93
2022-10-17T13:44:57.094Z,1999.90
2022-10-17T13:47:27.863Z,1271.35
2022-10-17T13:49:57.527Z,1605.15
2022-10-17T13:52:28.460Z,1405.80
2022-10-17T13:55:07.680Z,1567.93
2022-10-17T13:57:35.686Z,1323.80
2022-10-17T14:00:11.635Z,1251.47
2022-10-17T14:02:42.349Z,1337.63
2022-10-17T14:05:18.638Z,1261.15
2022-10-17T14:08:11.172Z,1472.28
2022-10-17T14:10:41.221Z,1260.43
2022-10-17T14:13:19.997Z,1514.53
2022-10-17T14:15:49.936Z,1356.65
2022-10-17T14:18:22.090Z,1641.28
2022-10-17T14:23:41.155Z,1746.15
2022-10-17T14:26:15.074Z,1468.68
2022-10-17T14:28:45.703Z,1123.00
2022-10-17T14:31:27.578Z,1285.95
2022-10-17T14:33:55.946Z,1751.15
2022-10-17T14:36:38.484Z,1488.63
2022-10-17T14:39:13.399Z,1309.63
2022-10-17T14:41:45.589Z,1280.55
2022-10-17T14:44:25.190Z,1515.53
2022-10-17T14:46:59.395Z,1318.07
2022-10-17T14:49:33.531Z,1425.47
2022-10-17T14:52:28.369Z,1337.65
2022-10-17T14:54:57.873Z,1587.13
2022-10-17T14:57:29.479Z,1156.22
2022-10-17T14:59:58.412Z,1415.75
2022-10-17T15:02:31.203Z,1413.75
2022-10-17T15:04:59.461Z,1202.85
2022-10-17T15:07:27.480Z,1281.82
2022-10-17T15:09:55.460Z,1110.20
2022-10-17T15:12:26.195Z,1238.57
2022-10-17T15:14:54.800Z,1183.00
2022-10-17T15:17:25.400Z,1167.05
2022-10-17T15:19:55.020Z,1308.70
2022-10-17T15:22:23.317Z,1180.72
2022-10-17T15:24:51.678Z,1202.78
2022-10-17T15:27:21.979Z,1352.43
2022-10-17T15:29:50.544Z,1396.68
2022-10-17T15:32:18.792Z,1232.53
2022-10-17T15:34:47.040Z,1274.05
2022-10-17T15:37:20.979Z,1499.63
2022-10-17T15:39:53.363Z,1498.50
2022-10-17T15:42:22.974Z,1401.05
2022-10-17T15:44:51.128Z,1392.43
2022-10-17T15:47:25.476Z,1386.70
2022-10-17T15:49:54.159Z,1344.50
2022-10-17T15:52:23.666Z,1257.80
2022-10-17T15:54:51.849Z,1371.40
2022-10-17T15:57:21.999Z,1477.28
2022-10-17T15:59:52.139Z,1551.50
2022-10-17T16:02:24.183Z,1301.30
2022-10-17T16:04:53.247Z,1356.70
2022-10-17T16:07:23.290Z,1355.43
2022-10-17T16:09:51.343Z,1320.57
2022-10-17T16:14:54.793Z,1119.57
2022-10-17T16:17:22.786Z,1543.03
2022-10-17T16:19:50.791Z,1272.50
2022-10-17T16:22:26.897Z,1378.53
2022-10-17T16:24:58.657Z,1430.80
2022-10-17T16:27:27.315Z,1190.43
2022-10-17T16:29:55.319Z,1282.00
2022-10-17T16:32:23.294Z,1265.85
2022-10-17T16:34:51.361Z,1334.18
2022-10-17T16:37:19.339Z,1281.93
2022-10-17T16:39:52.523Z,1389.97
2022-10-17T16:42:21.215Z,1086.65
2022-10-17T16:44:49.311Z,1162.80
2022-10-17T16:47:17.711Z,1403.22
2022-10-17T16:49:45.767Z,1176.43
2022-10-17T16:52:14.138Z,1209.05
2022-10-17T16:54:42.137Z,1399.43
2022-10-17T16:57:11.541Z,1131.45
2022-10-17T16:59:39.541Z,1197.75
2022-10-17T17:02:07.984Z,1416.25
2022-10-17T17:04:36.015Z,1446.93
2022-10-17T17:07:04.044Z,1246.18
2022-10-17T17:09:32.046Z,1322.57
2022-10-17T17:12:00.050Z,1665.07
2022-10-17T17:14:29.455Z,1414.13
2022-10-17T17:16:57.463Z,1518.28
2022-10-17T17:19:25.618Z,1494.68
2022-10-17T17:21:53.641Z,1510.50
2022-10-17T17:24:22.392Z,1559.65
2022-10-17T17:26:53.258Z,1434.53
2022-10-17T17:29:21.465Z,1742.97
2022-10-17T17:31:50.998Z,1546.20
2022-10-17T17:34:19.099Z,1246.15
2022-10-17T17:36:47.586Z,1643.90
2022-10-17T17:39:16.544Z,1720.28
2022-10-17T17:41:45.798Z,1298.40
2022-10-17T17:44:16.738Z,1547.22
2022-10-17T17:46:45.531Z,1534.07
2022-10-17T17:49:14.938Z,1581.10
2022-10-17T17:51:46.306Z,1598.90
2022-10-17T17:54:14.783Z,1202.45
2022-10-17T17:56:42.984Z,1638.22
2022-10-17T17:59:13.401Z,1339.40
2022-10-17T18:01:41.558Z,1302.80
2022-10-17T18:04:10.306Z,1593.82
2022-10-17T18:06:40.402Z,1443.88
2022-10-17T18:09:09.066Z,1701.32
2022-10-17T18:11:38.323Z,1488.72
2022-10-17T18:14:12.228Z,1416.68
2022-10-17T18:16:40.262Z,1230.78
2022-10-17T18:19:09.891Z,1669.22
2022-10-17T18:21:39.387Z,1553.90
2022-10-17T18:24:08.278Z,1380.30
2022-10-17T18:26:36.599Z,1422.00
2022-10-17T18:29:05.133Z,1589.07
2022-10-17T18:31:35.856Z,1402.53
2022-10-17T18:34:06.072Z,1534.20
2022-10-17T18:36:35.575Z,1538.03
2022-10-17T18:39:06.124Z,1555.70
2022-10-17T18:41:34.696Z,1242.88
2022-10-17T18:44:03.895Z,1310.20
2022-10-17T18:46:40.454Z,1414.05
2022-10-17T18:49:09.215Z,1368.00
2022-10-17T18:51:37.946Z,1307.57
2022-10-17T18:54:13.031Z,1224.80
2022-10-17T18:56:41.168Z,1234.30
2022-10-17T18:59:09.179Z,1741.80
2022-10-17T19:01:37.240Z,1004.58
2022-10-17T19:04:05.288Z,1544.68
2022-10-17T19:06:33.564Z,1353.90
2022-10-17T19:09:02.742Z,1440.07
2022-10-17T19:11:34.152Z,1178.32
2022-10-17T19:14:04.418Z,1428.65
2022-10-17T19:16:34.159Z,1400.68
2022-10-17T19:19:05.715Z,1533.75
2022-10-17T19:21:34.101Z,1600.40
2022-10-17T19:24:04.350Z,1436.13
2022-10-17T19:26:36.809Z,1218.63
2022-10-17T19:29:05.788Z,1077.22
2022-10-17T19:31:36.461Z,1211.47
2022-10-17T19:34:05.374Z,1196.53
2022-10-17T19:36:35.370Z,1090.50
2022-10-17T19:39:04.807Z,1331.05
2022-10-17T19:41:35.423Z,1270.38
2022-10-17T19:44:03.573Z,1058.75
2022-10-17T19:46:33.901Z,1282.10
2022-10-17T19:49:02.117Z,1463.13
2022-10-17T19:51:30.764Z,1263.13
2022-10-17T19:54:01.448Z,1341.95
2022-10-17T19:56:31.541Z,1043.65
2022-10-17T19:59:01.027Z,1094.78
2022-10-17T20:01:31.348Z,1183.10
2022-10-17T20:03:59.386Z,1117.32
2022-10-17T20:06:28.080Z,1173.78
2022-10-17T20:08:56.636Z,1153.07
2022-10-17T20:11:26.222Z,920.92
2022-10-17T20:13:54.764Z,1260.60
2022-10-17T20:16:26.615Z,1177.70
2022-10-17T20:18:56.471Z,1269.57
2022-10-17T20:21:27.314Z,914.40
2022-10-17T20:23:55.815Z,1156.15
2022-10-17T20:26:37.037Z,1098.95
2022-10-17T20:29:11.004Z,1101.15
2022-10-17T20:31:41.991Z,1026.63
2022-10-17T20:34:12.973Z,1321.97
2022-10-17T20:36:41.391Z,1289.82
2022-10-17T20:39:11.312Z,1214.75
2022-10-17T20:41:39.916Z,1105.03
2022-10-17T20:44:08.107Z,1282.65
2022-10-17T20:46:39.803Z,1161.78
2022-10-17T20:49:16.364Z,1293.88
2022-10-17T20:51:44.460Z,948.40
2022-10-17T20:54:13.038Z,1148.28
2022-10-17T20:56:41.287Z,1064.18
2022-10-17T20:59:13.100Z,1344.15
2022-10-17T21:01:41.327Z,1275.75
2022-10-17T21:06:59.744Z,771.15
2022-10-17T21:09:27.854Z,770.47
2022-10-17T21:11:56.801Z,1064.88
2022-10-17T21:14:25.920Z,1106.43
2022-10-17T21:16:54.222Z,1475.90
2022-10-17T21:19:22.830Z,1435.55
2022-10-17T21:21:51.188Z,891.67
2022-10-17T21:24:20.907Z,1165.93
2022-10-17T21:26:55.127Z,1010.38
2022-10-17T21:29:24.182Z,1222.43
2022-10-17T21:31:53.061Z,938.95
2022-10-17T21:34:23.925Z,1160.30
2022-10-17T21:36:52.459Z,1162.90
2022-10-17T21:39:24.135Z,884.53
2022-10-17T21:41:52.987Z,1090.22
2022-10-17T21:44:23.193Z,946.67
2022-10-17T21:46:52.129Z,1100.10
2022-10-17T21:49:22.315Z,1019.45
2022-10-17T21:51:50.807Z,1101.40
2022-10-17T21:54:20.500Z,1150.93
2022-10-17T21:56:50.454Z,1403.53
2022-10-17T21:59:18.515Z,783.40
2022-10-17T22:01:47.421Z,1040.00
2022-10-17T22:04:18.023Z,1322.50
2022-10-17T22:06:47.862Z,915.10
2022-10-17T22:09:17.351Z,1251.05
2022-10-17T22:11:47.182Z,925.58
2022-10-17T22:14:19.811Z,1028.57
2022-10-17T22:16:49.407Z,1011.28
2022-10-17T22:19:19.312Z,1274.47
2022-10-17T22:21:47.323Z,1212.53
2022-10-17T22:24:16.369Z,1384.03
2022-10-17T22:26:44.901Z,1138.70
2022-10-17T22:29:13.416Z,1083.20
2022-10-17T22:31:43.096Z,1444.57
2022-10-17T22:34:13.502Z,948.72
2022-10-17T22:36:41.759Z,1238.68
2022-10-17T22:39:10.131Z,966.67
2022-10-17T22:41:38.164Z,1059.90
2022-10-17T22:44:06.849Z,1113.22
2022-10-17T22:46:34.920Z,1241.75
2022-10-17T22:49:04.421Z,1039.45
2022-10-17T22:51:33.009Z,1306.25
2022-10-17T22:54:01.074Z,1604.93
2022-10-17T22:56:29.147Z,1056.22
2022-10-17T22:58:57.177Z,1077.97
2022-10-17T23:01:26.741Z,1092.18
2022-10-17T23:03:55.145Z,1285.28
2022-10-17T23:06:24.709Z,1227.03
2022-10-17T23:08:53.274Z,1360.68
2022-10-17T23:11:21.872Z,1134.20
2022-10-17T23:13:50.023Z,1302.47
2022-10-17T23:16:18.006Z,1260.20
2022-10-17T23:18:46.052Z,1226.82
2022-10-17T23:21:14.271Z,1436.57
2022-10-17T23:23:43.653Z,1388.20
2022-10-17T23:26:15.193Z,1142.18
2022-10-17T23:28:44.217Z,971.42
2022-10-17T23:31:14.586Z,1058.68
2022-10-17T23:33:42.969Z,1415.03
2022-10-17T23:36:12.258Z,1010.40
2022-10-17T23:38:40.648Z,1040.72
2022-10-17T23:41:10.624Z,1189.65
2022-10-17T23:43:38.884Z,667.60
2022-10-17T23:46:07.863Z,761.67
2022-10-17T23:48:36.115Z,1104.22
2022-10-17T23:51:04.460Z,1508.00
2022-10-17T23:53:32.612Z,1222.50
2022-10-17T23:56:00.698Z,1322.95
2022-10-17T23:58:30.208Z,1298.40
